createdAt,value
2019-03-31T00:01:07.522Z,25.17
2019-03-31T00:03:33.464Z,25.47
2019-03-31T00:06:03.578Z,26.17
2019-03-31T00:08:35.886Z,27.43
2019-03-31T00:11:07.546Z,26.57
2019-03-31T00:13:37.529Z,25.70
2019-03-31T00:16:08.337Z,30.63
2019-03-31T00:18:37.881Z,23.43
2019-03-31T00:21:08.327Z,24.50
2019-03-31T00:23:39.074Z,25.53
2019-03-31T00:26:13.816Z,24.97
2019-03-31T00:28:47.485Z,23.40
2019-03-31T00:31:22.452Z,24.30
2019-03-31T00:33:51.684Z,24.73
2019-03-31T00:36:28.343Z,24.73
2019-03-31T00:38:58.499Z,24.03
2019-03-31T00:41:28.486Z,20.47
2019-03-31T00:43:58.008Z,23.33
2019-03-31T00:46:28.516Z,26.43
2019-03-31T00:48:58.532Z,23.53
2019-03-31T00:51:28.088Z,26.00
2019-03-31T00:53:57.370Z,30.17
2019-03-31T00:56:26.832Z,26.50
2019-03-31T00:58:56.388Z,24.03
2019-03-31T01:01:36.719Z,25.53
2019-03-31T01:04:07.929Z,23.63
2019-03-31T01:06:38.950Z,26.07
2019-03-31T01:09:19.818Z,24.73
2019-03-31T01:11:50.790Z,24.70
2019-03-31T01:14:20.511Z,25.67
2019-03-31T01:16:50.716Z,23.00
2019-03-31T01:19:21.975Z,24.50
2019-03-31T01:21:51.157Z,26.00
2019-03-31T01:24:21.023Z,24.87
2019-03-31T01:26:50.528Z,25.13
2019-03-31T01:29:20.626Z,24.07
2019-03-31T01:31:50.926Z,25.17
2019-03-31T01:34:21.529Z,26.43
2019-03-31T01:36:51.575Z,23.83
2019-03-31T01:39:23.462Z,24.30
2019-03-31T01:41:53.088Z,20.40
2019-03-31T01:44:23.988Z,24.03
2019-03-31T01:46:53.587Z,22.90
2019-03-31T01:49:26.084Z,26.07
2019-03-31T01:51:55.514Z,23.23
2019-03-31T01:54:26.331Z,23.47
2019-03-31T01:56:56.307Z,25.07
2019-03-31T01:59:27.696Z,23.00
2019-03-31T02:02:04.364Z,23.47
2019-03-31T02:04:31.568Z,25.63
2019-03-31T02:07:02.467Z,24.93
2019-03-31T02:09:32.121Z,21.17
2019-03-31T02:12:01.759Z,21.97
2019-03-31T02:14:31.048Z,24.27
2019-03-31T02:17:03.843Z,27.77
2019-03-31T02:19:36.407Z,27.87
2019-03-31T02:22:10.902Z,22.50
2019-03-31T02:24:41.256Z,22.13
2019-03-31T02:27:11.982Z,22.47
2019-03-31T02:29:41.913Z,23.93
2019-03-31T02:32:23.359Z,24.57
2019-03-31T02:34:52.822Z,24.13
2019-03-31T02:37:23.486Z,25.70
2019-03-31T02:39:52.881Z,25.77
2019-03-31T02:42:22.595Z,25.23
2019-03-31T02:44:52.153Z,24.83
2019-03-31T02:47:21.874Z,26.97
2019-03-31T02:49:54.925Z,24.90
2019-03-31T02:52:47.710Z,28.57
2019-03-31T02:55:19.135Z,25.70
2019-03-31T02:57:48.522Z,25.40
2019-03-31T03:00:17.813Z,27.80
2019-03-31T03:02:49.841Z,26.53
2019-03-31T03:05:20.745Z,28.27
2019-03-31T03:07:50.647Z,25.73
2019-03-31T03:10:22.217Z,26.80
2019-03-31T03:12:53.092Z,27.97
2019-03-31T03:15:30.103Z,25.73
2019-03-31T03:18:02.672Z,26.37
2019-03-31T03:20:36.910Z,28.57
2019-03-31T03:23:06.356Z,28.17
2019-03-31T03:25:35.651Z,29.90
2019-03-31T03:28:05.398Z,28.77
2019-03-31T03:30:34.773Z,27.03
2019-03-31T03:33:15.804Z,30.77
2019-03-31T03:35:35.986Z,30.60
2019-03-31T03:38:05.417Z,29.40
2019-03-31T03:40:35.087Z,27.13
2019-03-31T03:43:04.235Z,32.13
2019-03-31T03:45:34.002Z,29.77
2019-03-31T03:48:04.008Z,33.07
2019-03-31T03:50:33.629Z,29.00
2019-03-31T03:53:02.988Z,29.83
2019-03-31T03:55:32.404Z,30.10
2019-03-31T03:58:02.190Z,30.47
2019-03-31T04:00:31.522Z,31.63
2019-03-31T04:03:02.724Z,29.63
2019-03-31T04:05:32.513Z,30.73
2019-03-31T04:08:01.668Z,28.93
2019-03-31T04:10:48.245Z,33.93
2019-03-31T04:13:17.338Z,33.07
2019-03-31T04:15:47.044Z,29.70
2019-03-31T04:18:18.269Z,31.50
2019-03-31T04:20:47.583Z,31.03
2019-03-31T04:23:16.991Z,33.30
2019-03-31T04:25:46.488Z,31.60
2019-03-31T04:28:15.606Z,28.37
2019-03-31T04:30:44.850Z,35.23
2019-03-31T04:33:14.080Z,32.47
2019-03-31T04:35:43.771Z,35.03
2019-03-31T04:38:13.334Z,35.30
2019-03-31T04:40:42.672Z,31.67
2019-03-31T04:43:12.270Z,34.47
2019-03-31T04:45:43.222Z,35.20
2019-03-31T04:48:12.915Z,33.67
2019-03-31T04:50:43.120Z,35.50
2019-03-31T04:53:12.576Z,36.60
2019-03-31T04:55:42.429Z,33.87
2019-03-31T04:58:11.903Z,38.20
2019-03-31T05:00:41.219Z,34.77
2019-03-31T05:03:11.852Z,37.80
2019-03-31T05:05:41.264Z,37.23
2019-03-31T05:08:10.553Z,35.07
2019-03-31T05:10:41.949Z,36.03
2019-03-31T05:13:11.781Z,34.37
2019-03-31T05:15:42.356Z,35.17
2019-03-31T05:18:11.914Z,34.20
2019-03-31T05:20:41.161Z,34.57
2019-03-31T05:23:10.357Z,38.17
2019-03-31T05:25:39.699Z,37.80
2019-03-31T05:28:10.398Z,37.87
2019-03-31T05:30:40.188Z,36.80
2019-03-31T05:33:10.030Z,36.50
2019-03-31T05:35:45.498Z,32.90
2019-03-31T05:38:15.939Z,36.90
2019-03-31T05:40:45.288Z,41.67
2019-03-31T05:43:16.115Z,35.40
2019-03-31T05:45:45.597Z,36.07
2019-03-31T05:48:16.038Z,39.23
2019-03-31T05:50:47.049Z,37.13
2019-03-31T05:53:17.661Z,35.83
2019-03-31T05:55:47.675Z,38.63
2019-03-31T05:58:16.719Z,34.57
2019-03-31T06:00:54.836Z,38.60
2019-03-31T06:03:24.866Z,36.50
2019-03-31T06:05:54.242Z,38.77
2019-03-31T06:08:24.604Z,38.13
2019-03-31T06:10:54.128Z,38.83
2019-03-31T06:13:24.130Z,38.73
2019-03-31T06:15:53.405Z,41.83
2019-03-31T06:18:23.425Z,39.73
2019-03-31T06:20:52.709Z,44.80
2019-03-31T06:23:21.843Z,45.00
2019-03-31T06:25:51.246Z,41.97
2019-03-31T06:28:20.453Z,48.80
2019-03-31T06:30:49.702Z,45.93
2019-03-31T06:33:19.252Z,45.80
2019-03-31T06:35:48.455Z,46.37
2019-03-31T06:38:17.612Z,47.43
2019-03-31T06:40:50.990Z,54.73
2019-03-31T06:43:20.025Z,54.87
2019-03-31T06:45:49.119Z,50.77
2019-03-31T06:48:19.343Z,49.07
2019-03-31T06:50:49.146Z,47.80
2019-03-31T06:53:18.285Z,54.30
2019-03-31T06:55:47.739Z,32.43
2019-03-31T06:58:16.974Z,60.27
2019-03-31T07:00:46.024Z,38.17
2019-03-31T07:03:15.679Z,55.57
2019-03-31T07:05:44.798Z,50.10
2019-03-31T07:08:14.597Z,53.77
2019-03-31T07:10:43.644Z,61.77
2019-03-31T07:13:13.415Z,64.43
2019-03-31T07:15:43.109Z,64.87
2019-03-31T07:18:15.826Z,67.60
2019-03-31T07:20:43.983Z,42.00
2019-03-31T07:23:13.111Z,69.50
2019-03-31T07:25:43.525Z,49.33
2019-03-31T07:28:13.019Z,49.97
2019-03-31T07:30:42.252Z,74.60
2019-03-31T07:33:12.642Z,52.60
2019-03-31T07:35:43.123Z,66.07
2019-03-31T07:38:12.182Z,70.10
2019-03-31T07:40:41.300Z,64.77
2019-03-31T07:43:10.517Z,62.30
2019-03-31T07:45:39.885Z,51.30
2019-03-31T07:48:09.611Z,52.03
2019-03-31T07:50:38.901Z,54.13
2019-03-31T07:53:08.086Z,40.57
2019-03-31T07:55:37.397Z,68.63
2019-03-31T07:58:06.454Z,45.17
2019-03-31T08:00:35.655Z,64.47
2019-03-31T08:03:04.802Z,50.57
2019-03-31T08:05:37.461Z,48.57
2019-03-31T08:08:04.781Z,49.87
2019-03-31T08:10:33.987Z,47.80
2019-03-31T08:13:03.110Z,52.40
2019-03-31T08:15:32.211Z,44.23
2019-03-31T08:18:01.265Z,53.43
2019-03-31T08:20:30.849Z,55.97
2019-03-31T08:23:00.013Z,48.93
2019-03-31T08:25:29.329Z,55.00
2019-03-31T08:27:58.976Z,47.47
2019-03-31T08:30:28.084Z,63.40
2019-03-31T08:32:57.408Z,55.97
2019-03-31T08:35:27.005Z,42.23
2019-03-31T08:37:56.453Z,51.13
2019-03-31T08:40:25.482Z,65.23
2019-03-31T08:42:54.641Z,69.27
2019-03-31T08:45:23.725Z,62.40
2019-03-31T08:47:52.780Z,66.00
2019-03-31T08:50:22.421Z,57.23
2019-03-31T08:52:51.503Z,47.67
2019-03-31T08:55:20.606Z,39.73
2019-03-31T08:57:49.737Z,62.37
2019-03-31T09:00:53.297Z,49.97
2019-03-31T09:03:22.495Z,48.57
2019-03-31T09:06:01.494Z,54.90
2019-03-31T09:08:22.664Z,52.20
2019-03-31T09:10:54.318Z,65.60
2019-03-31T09:13:23.735Z,54.30
2019-03-31T09:15:53.691Z,63.27
2019-03-31T09:18:23.396Z,50.93
2019-03-31T09:20:53.298Z,61.53
2019-03-31T09:23:22.560Z,46.57
2019-03-31T09:25:52.184Z,75.37
2019-03-31T09:28:22.064Z,66.23
2019-03-31T09:30:53.089Z,52.43
2019-03-31T09:33:23.062Z,69.93
2019-03-31T09:35:52.640Z,61.27
2019-03-31T09:38:24.677Z,65.73
2019-03-31T09:40:54.067Z,66.77
2019-03-31T09:43:24.666Z,62.77
2019-03-31T09:45:55.690Z,61.17
2019-03-31T09:48:27.279Z,73.10
2019-03-31T09:50:57.072Z,71.60
2019-03-31T09:53:26.416Z,68.57
2019-03-31T09:55:57.815Z,69.50
2019-03-31T09:58:28.716Z,69.77
2019-03-31T10:00:58.792Z,63.83
2019-03-31T10:03:28.222Z,63.27
2019-03-31T10:06:10.444Z,56.73
2019-03-31T10:08:33.489Z,62.03
2019-03-31T10:11:03.856Z,52.40
2019-03-31T10:13:33.567Z,53.87
2019-03-31T10:16:03.218Z,46.40
2019-03-31T10:18:35.306Z,57.37
2019-03-31T10:21:04.810Z,38.93
2019-03-31T10:23:35.582Z,55.33
2019-03-31T10:26:05.237Z,52.93
2019-03-31T10:28:35.035Z,47.40
2019-03-31T10:31:04.498Z,59.97
2019-03-31T10:33:34.513Z,52.60
2019-03-31T10:36:04.784Z,58.93
2019-03-31T10:38:34.345Z,56.70
2019-03-31T10:41:05.344Z,49.30
2019-03-31T10:43:35.110Z,57.57
2019-03-31T10:46:07.334Z,54.47
2019-03-31T10:48:37.336Z,59.47
2019-03-31T10:51:07.041Z,44.83
2019-03-31T10:53:36.421Z,47.20
2019-03-31T10:56:05.772Z,59.00
2019-03-31T10:58:36.281Z,50.73
2019-03-31T11:01:05.828Z,60.03
2019-03-31T11:03:36.291Z,46.97
2019-03-31T11:06:07.646Z,41.03
2019-03-31T11:08:36.851Z,60.93
2019-03-31T11:11:06.249Z,58.87
2019-03-31T11:13:39.470Z,59.83
2019-03-31T11:16:09.500Z,47.23
2019-03-31T11:18:46.315Z,48.70
2019-03-31T11:21:33.195Z,53.03
2019-03-31T11:24:04.278Z,61.97
2019-03-31T11:26:35.203Z,62.13
2019-03-31T11:29:05.813Z,42.43
2019-03-31T11:31:37.504Z,58.87
2019-03-31T11:34:08.387Z,65.30
2019-03-31T11:36:38.331Z,62.47
2019-03-31T11:39:16.032Z,57.93
2019-03-31T11:41:48.922Z,65.23
2019-03-31T11:44:20.635Z,56.07
2019-03-31T11:47:00.958Z,57.23
2019-03-31T11:49:31.255Z,56.73
2019-03-31T11:52:00.680Z,54.63
2019-03-31T11:54:30.054Z,52.20
2019-03-31T11:57:00.745Z,62.23
2019-03-31T11:59:33.837Z,50.03
2019-03-31T12:02:03.415Z,58.73
2019-03-31T12:04:39.772Z,55.43
2019-03-31T12:07:09.011Z,44.30
2019-03-31T12:09:38.148Z,53.40
2019-03-31T12:12:07.373Z,47.70
2019-03-31T12:14:36.445Z,40.43
2019-03-31T12:17:05.633Z,56.13
2019-03-31T12:19:34.699Z,50.77
2019-03-31T12:22:04.647Z,44.63
2019-03-31T12:24:33.831Z,46.60
2019-03-31T12:27:03.353Z,44.53
2019-03-31T12:29:32.603Z,42.10
2019-03-31T12:32:01.945Z,41.30
2019-03-31T12:34:31.396Z,41.23
2019-03-31T12:37:00.490Z,37.20
2019-03-31T12:39:30.035Z,36.23
2019-03-31T12:41:59.245Z,37.53
2019-03-31T12:44:28.798Z,30.83
2019-03-31T12:46:57.936Z,32.57
2019-03-31T12:49:26.985Z,31.97
2019-03-31T12:51:56.250Z,25.43
2019-03-31T12:54:25.401Z,27.97
2019-03-31T12:56:54.701Z,20.73
2019-03-31T12:59:27.061Z,21.43
2019-03-31T13:01:56.134Z,21.20
2019-03-31T13:04:25.681Z,26.03
2019-03-31T13:06:54.982Z,25.47
2019-03-31T13:09:26.231Z,22.57
2019-03-31T13:11:56.759Z,24.20
2019-03-31T13:14:26.729Z,14.53
2019-03-31T13:16:57.070Z,13.00
2019-03-31T13:19:27.871Z,19.70
2019-03-31T13:21:59.374Z,22.67
2019-03-31T13:24:30.448Z,21.37
2019-03-31T13:27:01.371Z,19.73
2019-03-31T13:29:31.294Z,31.73
2019-03-31T13:32:01.159Z,25.73
2019-03-31T13:34:30.442Z,26.27
2019-03-31T13:36:59.999Z,20.17
2019-03-31T13:39:29.437Z,22.83
2019-03-31T13:41:59.146Z,25.83
2019-03-31T13:44:28.580Z,29.67
2019-03-31T13:46:57.850Z,28.67
2019-03-31T13:49:27.070Z,26.93
2019-03-31T13:51:56.430Z,28.47
2019-03-31T13:54:26.125Z,25.10
2019-03-31T13:56:56.142Z,23.97
2019-03-31T13:59:26.212Z,24.57
2019-03-31T14:01:55.699Z,21.77
2019-03-31T14:04:25.248Z,15.60
2019-03-31T14:06:54.599Z,17.30
2019-03-31T14:09:24.430Z,21.90
2019-03-31T14:11:56.860Z,26.33
2019-03-31T14:14:25.980Z,22.27
2019-03-31T14:16:55.440Z,16.83
2019-03-31T14:19:25.059Z,20.53
2019-03-31T14:21:54.227Z,27.93
2019-03-31T14:24:26.793Z,17.57
2019-03-31T14:26:54.562Z,12.70
2019-03-31T14:29:24.300Z,23.43
2019-03-31T14:31:54.133Z,25.63
2019-03-31T14:34:23.528Z,19.90
2019-03-31T14:36:52.889Z,26.03
2019-03-31T14:39:22.232Z,17.60
2019-03-31T14:41:51.332Z,18.67
2019-03-31T14:44:20.715Z,15.97
2019-03-31T14:46:51.426Z,19.53
2019-03-31T14:49:20.861Z,13.23
2019-03-31T14:51:51.531Z,12.50
2019-03-31T14:54:22.912Z,12.77
2019-03-31T14:56:54.124Z,13.23
2019-03-31T14:59:24.359Z,14.60
2019-03-31T15:01:53.868Z,12.67
2019-03-31T15:04:27.682Z,13.43
2019-03-31T15:06:58.798Z,11.87
2019-03-31T15:09:31.196Z,15.47
2019-03-31T15:12:00.880Z,11.70
2019-03-31T15:14:32.896Z,14.87
2019-03-31T15:17:02.378Z,8.40
2019-03-31T15:19:35.642Z,13.63
2019-03-31T15:22:11.054Z,10.53
2019-03-31T15:24:40.531Z,10.20
2019-03-31T15:27:14.067Z,8.07
2019-03-31T15:29:43.511Z,8.27
2019-03-31T15:32:13.855Z,12.97
2019-03-31T15:34:43.265Z,8.80
2019-03-31T15:37:14.886Z,10.50
2019-03-31T15:39:44.584Z,8.13
2019-03-31T15:42:16.083Z,10.80
2019-03-31T15:44:45.972Z,8.43
2019-03-31T15:47:15.321Z,7.73
2019-03-31T15:49:47.654Z,8.20
2019-03-31T15:52:27.257Z,7.47
2019-03-31T15:55:00.377Z,9.33
2019-03-31T15:57:31.237Z,9.93
2019-03-31T16:00:01.865Z,7.67
2019-03-31T16:02:32.392Z,8.57
2019-03-31T16:05:01.966Z,8.23
2019-03-31T16:07:32.608Z,9.47
2019-03-31T16:10:01.564Z,8.20
2019-03-31T16:12:32.169Z,12.87
2019-03-31T16:15:01.823Z,8.43
2019-03-31T16:17:31.461Z,6.80
2019-03-31T16:20:01.902Z,8.30
2019-03-31T16:22:32.193Z,7.67
2019-03-31T16:25:02.668Z,10.37
2019-03-31T16:27:34.520Z,5.37
2019-03-31T16:30:04.897Z,7.47
2019-03-31T16:32:38.861Z,8.53
2019-03-31T16:35:08.919Z,6.67
2019-03-31T16:37:37.947Z,10.87
2019-03-31T16:40:13.353Z,13.00
2019-03-31T16:42:44.920Z,9.23
2019-03-31T16:45:14.046Z,7.90
2019-03-31T16:47:43.375Z,8.57
2019-03-31T16:50:13.827Z,9.50
2019-03-31T16:52:45.344Z,8.87
2019-03-31T16:55:18.316Z,8.70
2019-03-31T16:57:49.103Z,7.70
2019-03-31T17:00:21.258Z,10.57
2019-03-31T17:02:51.891Z,10.00
2019-03-31T17:05:22.632Z,12.50
2019-03-31T17:07:52.226Z,10.83
2019-03-31T17:10:22.619Z,11.03
2019-03-31T17:12:52.056Z,9.40
2019-03-31T17:15:22.402Z,11.30
2019-03-31T17:17:58.138Z,9.83
2019-03-31T17:20:28.001Z,9.67
2019-03-31T17:22:57.190Z,9.70
2019-03-31T17:25:30.693Z,13.47
2019-03-31T17:28:01.709Z,12.10
2019-03-31T17:30:31.825Z,8.80
2019-03-31T17:33:04.562Z,9.70
2019-03-31T17:35:36.389Z,10.97
2019-03-31T17:38:08.531Z,15.40
2019-03-31T17:40:52.976Z,11.23
2019-03-31T17:43:29.283Z,11.10
2019-03-31T17:45:59.212Z,10.97
2019-03-31T17:48:28.669Z,11.90
2019-03-31T17:50:58.082Z,11.20
2019-03-31T17:53:27.945Z,10.07
2019-03-31T17:55:58.807Z,11.47
2019-03-31T17:58:28.127Z,11.73
2019-03-31T18:00:58.004Z,10.87
2019-03-31T18:03:28.152Z,14.40
2019-03-31T18:05:58.195Z,15.87
2019-03-31T18:08:28.509Z,15.10
2019-03-31T18:11:00.034Z,17.03
2019-03-31T18:13:32.156Z,18.63
2019-03-31T18:16:03.465Z,17.47
2019-03-31T18:18:36.037Z,26.57
2019-03-31T18:21:05.959Z,26.07
2019-03-31T18:23:35.500Z,28.60
2019-03-31T18:26:05.380Z,39.23
2019-03-31T18:28:35.706Z,26.17
2019-03-31T18:31:06.142Z,26.97
2019-03-31T18:33:35.694Z,35.03
2019-03-31T18:36:09.078Z,33.13
2019-03-31T18:38:39.159Z,24.30
2019-03-31T18:41:08.967Z,27.30
2019-03-31T18:43:50.230Z,25.10
2019-03-31T18:46:10.855Z,22.63
2019-03-31T18:48:50.650Z,25.57
2019-03-31T18:51:29.289Z,22.63
2019-03-31T18:54:23.430Z,21.80
2019-03-31T18:56:59.184Z,25.70
2019-03-31T18:59:47.716Z,24.43
2019-03-31T19:02:30.020Z,29.47
2019-03-31T19:05:24.427Z,28.07
2019-03-31T19:08:26.496Z,27.97
2019-03-31T19:11:15.021Z,25.17
2019-03-31T19:14:03.565Z,28.57
2019-03-31T19:16:59.733Z,26.97
2019-03-31T19:19:46.967Z,26.10
2019-03-31T19:22:35.970Z,25.33
2019-03-31T19:25:18.661Z,24.23
2019-03-31T19:28:04.104Z,20.47
2019-03-31T19:30:45.153Z,20.07
2019-03-31T19:33:42.808Z,16.13
2019-03-31T19:36:28.945Z,21.03
2019-03-31T19:39:23.697Z,18.80
2019-03-31T19:42:18.157Z,31.37
2019-03-31T19:45:11.497Z,20.43
2019-03-31T19:47:52.488Z,20.13
2019-03-31T19:50:45.786Z,15.77
2019-03-31T19:53:32.569Z,15.63
2019-03-31T19:56:16.168Z,18.37
2019-03-31T19:59:07.602Z,17.03
2019-03-31T20:01:58.881Z,11.80
2019-03-31T20:04:37.736Z,7.73
2019-03-31T20:07:41.196Z,7.83
2019-03-31T20:10:41.560Z,12.57
2019-03-31T20:13:28.858Z,10.57
2019-03-31T20:16:36.136Z,15.93
2019-03-31T20:19:24.316Z,6.30
2019-03-31T20:34:53.138Z,18.50
2019-03-31T20:37:35.869Z,13.50
2019-03-31T20:40:14.615Z,16.43
2019-03-31T20:43:16.350Z,11.80
2019-03-31T20:45:45.418Z,13.37
2019-03-31T20:48:15.396Z,9.57
2019-03-31T20:50:49.369Z,7.97
2019-03-31T20:53:18.733Z,8.37
2019-03-31T20:55:47.906Z,8.77
2019-03-31T20:58:17.359Z,6.07
2019-03-31T21:00:47.647Z,13.07
2019-03-31T21:03:17.767Z,9.60
2019-03-31T21:05:50.155Z,11.00
2019-03-31T21:08:19.069Z,7.70
2019-03-31T21:10:49.130Z,5.60
2019-03-31T21:13:18.290Z,9.40
2019-03-31T21:15:47.658Z,4.77
2019-03-31T21:18:16.952Z,14.23
2019-03-31T21:20:48.492Z,11.73
2019-03-31T21:23:19.631Z,2.40
2019-03-31T21:25:49.348Z,7.77
2019-03-31T21:28:23.611Z,11.20
2019-03-31T21:30:55.716Z,5.63
2019-03-31T21:33:26.071Z,8.97
2019-03-31T21:35:58.125Z,6.50
2019-03-31T21:38:28.256Z,2.97
2019-03-31T21:40:58.508Z,8.70
2019-03-31T21:43:30.511Z,10.13
2019-03-31T21:46:01.857Z,4.97
2019-03-31T21:48:31.943Z,7.00
2019-03-31T21:51:04.839Z,9.07
2019-03-31T21:53:37.767Z,5.83
2019-03-31T21:56:07.252Z,4.47
2019-03-31T21:58:38.550Z,11.53
2019-03-31T22:01:10.795Z,8.00
2019-03-31T22:03:39.906Z,8.40
2019-03-31T22:06:10.756Z,12.17
2019-03-31T22:08:42.091Z,7.77
2019-03-31T22:11:15.444Z,8.20
2019-03-31T22:13:44.997Z,6.33
2019-03-31T22:16:13.986Z,4.20
2019-03-31T22:18:47.171Z,9.97
2019-03-31T22:21:16.856Z,8.50
2019-03-31T22:23:57.375Z,4.53
2019-03-31T22:26:21.836Z,4.37
2019-03-31T22:28:50.959Z,5.13
2019-03-31T22:31:20.535Z,2.70
2019-03-31T22:33:50.221Z,4.23
2019-03-31T22:36:24.887Z,8.43
2019-03-31T22:38:53.992Z,5.23
2019-03-31T22:41:23.021Z,5.30
2019-03-31T22:43:53.235Z,10.70
2019-03-31T22:46:22.382Z,4.63
2019-03-31T22:48:51.463Z,6.63
2019-03-31T22:51:25.003Z,7.83
2019-03-31T22:53:53.864Z,4.53
2019-03-31T22:56:24.838Z,8.47
2019-03-31T22:58:53.897Z,4.80
2019-03-31T23:01:24.623Z,7.90
2019-03-31T23:03:53.906Z,10.63
2019-03-31T23:06:26.068Z,7.87
2019-03-31T23:08:55.633Z,8.07
2019-03-31T23:11:24.757Z,10.90
2019-03-31T23:13:54.515Z,3.90
2019-03-31T23:16:23.862Z,7.97
2019-03-31T23:18:52.761Z,8.93
2019-03-31T23:21:23.856Z,8.53
2019-03-31T23:23:53.036Z,10.03
2019-03-31T23:26:22.666Z,12.10
2019-03-31T23:28:53.505Z,8.27
2019-03-31T23:31:22.332Z,10.93
2019-03-31T23:33:51.342Z,9.80
2019-03-31T23:36:20.332Z,6.37
2019-03-31T23:38:49.282Z,4.00
2019-03-31T23:41:18.106Z,5.73
2019-03-31T23:43:50.228Z,9.00
2019-03-31T23:46:19.474Z,7.33
2019-03-31T23:48:48.769Z,6.13
2019-03-31T23:51:17.746Z,5.23
2019-03-31T23:53:46.803Z,5.60
2019-03-31T23:56:15.601Z,7.60
2019-03-31T23:58:44.995Z,5.17
